createdAt,value
2023-03-22T00:01:19.504Z,78.58
2023-03-22T00:03:49.464Z,78.53
2023-03-22T00:06:19.069Z,78.18
2023-03-22T00:08:51.505Z,77.76
2023-03-22T00:11:20.942Z,77.71
2023-03-22T00:13:52.523Z,77.66
2023-03-22T00:16:23.060Z,77.22
2023-03-22T00:18:52.191Z,77.17
2023-03-22T00:21:21.159Z,76.95
2023-03-22T00:23:49.532Z,76.92
2023-03-22T00:26:17.994Z,76.52
2023-03-22T00:28:46.531Z,76.64
2023-03-22T00:31:15.240Z,76.24
2023-03-22T00:33:45.235Z,76.77
2023-03-22T00:36:15.926Z,76.72
2023-03-22T00:38:53.872Z,76.75
2023-03-22T00:41:23.737Z,76.51
2023-03-22T00:43:53.062Z,76.40
2023-03-22T00:46:23.027Z,76.89
2023-03-22T00:48:52.840Z,77.22
2023-03-22T00:51:21.326Z,77.54
2023-03-22T00:53:50.988Z,77.32
2023-03-22T00:56:19.695Z,77.13
2023-03-22T00:58:48.074Z,77.08
2023-03-22T01:01:16.561Z,77.16
2023-03-22T01:03:45.500Z,77.58
2023-03-22T01:06:15.617Z,77.41
2023-03-22T01:08:43.979Z,77.04
2023-03-22T01:11:12.802Z,77.37
2023-03-22T01:13:42.352Z,77.08
2023-03-22T01:16:11.457Z,77.20
2023-03-22T01:18:40.806Z,76.99
2023-03-22T01:21:09.864Z,76.92
2023-03-22T01:23:39.950Z,76.42
2023-03-22T01:26:08.472Z,76.40
2023-03-22T01:28:36.935Z,76.67
2023-03-22T01:31:05.649Z,76.78
2023-03-22T01:33:34.133Z,76.74
2023-03-22T01:36:02.590Z,77.00
2023-03-22T01:38:31.012Z,77.65
2023-03-22T01:41:00.768Z,77.40
2023-03-22T01:43:29.558Z,77.23
2023-03-22T01:45:58.311Z,77.31
2023-03-22T01:48:31.286Z,76.88
2023-03-22T01:51:05.141Z,77.12
2023-03-22T01:53:38.040Z,77.31
2023-03-22T01:56:09.594Z,77.34
2023-03-22T01:58:39.702Z,77.91
2023-03-22T02:01:10.986Z,78.11
2023-03-22T02:03:46.027Z,78.56
2023-03-22T02:06:14.945Z,78.02
2023-03-22T02:08:43.333Z,78.27
2023-03-22T02:11:17.730Z,78.75
2023-03-22T02:14:27.285Z,78.30
2023-03-22T02:17:20.034Z,78.51
2023-03-22T02:20:20.314Z,79.33
2023-03-22T02:23:11.092Z,79.34
2023-03-22T02:26:03.231Z,79.29
2023-03-22T02:28:43.554Z,79.18
2023-03-22T02:31:26.012Z,78.96
2023-03-22T02:34:15.668Z,79.40
2023-03-22T02:37:20.161Z,79.31
2023-03-22T02:39:54.496Z,78.79
2023-03-22T02:42:35.713Z,79.26
2023-03-22T02:45:12.001Z,79.43
2023-03-22T02:47:44.703Z,79.75
2023-03-22T02:50:21.387Z,79.40
2023-03-22T02:52:54.046Z,79.46
2023-03-22T02:55:30.575Z,80.04
2023-03-22T02:58:04.722Z,80.59
2023-03-22T03:00:36.719Z,81.17
2023-03-22T03:03:12.169Z,81.74
2023-03-22T03:05:43.741Z,81.43
2023-03-22T03:08:14.429Z,80.69
2023-03-22T03:10:46.556Z,81.15
2023-03-22T03:13:16.740Z,81.44
2023-03-22T03:15:49.993Z,81.54
2023-03-22T03:18:32.228Z,81.81
2023-03-22T03:21:08.881Z,82.20
2023-03-22T03:23:50.469Z,82.53
2023-03-22T03:26:38.217Z,82.34
2023-03-22T03:29:12.850Z,82.86
2023-03-22T03:31:46.378Z,83.07
2023-03-22T03:34:19.338Z,83.60
2023-03-22T03:36:53.632Z,83.82
2023-03-22T03:39:25.646Z,83.85
2023-03-22T03:41:57.295Z,84.00
2023-03-22T03:44:25.964Z,83.96
2023-03-22T03:46:55.453Z,83.95
2023-03-22T03:49:27.262Z,83.97
2023-03-22T03:51:57.282Z,83.95
2023-03-22T03:54:25.951Z,84.19
2023-03-22T03:56:55.910Z,84.22
2023-03-22T03:59:24.396Z,84.46
2023-03-22T04:01:53.053Z,84.74
2023-03-22T04:04:26.675Z,84.64
2023-03-22T04:07:00.437Z,84.86
2023-03-22T04:09:30.725Z,85.17
2023-03-22T04:12:00.904Z,84.98
2023-03-22T04:14:29.512Z,85.01
2023-03-22T04:16:57.912Z,85.19
2023-03-22T04:19:26.664Z,85.16
2023-03-22T04:21:55.441Z,85.33
2023-03-22T04:24:23.856Z,85.48
2023-03-22T04:26:53.219Z,85.59
2023-03-22T04:29:23.074Z,85.53
2023-03-22T04:31:53.021Z,85.58
2023-03-22T04:34:21.732Z,85.67
2023-03-22T04:36:50.652Z,85.85
2023-03-22T04:39:19.277Z,85.83
2023-03-22T04:41:47.875Z,85.97
2023-03-22T04:44:16.309Z,86.36
2023-03-22T04:46:46.097Z,86.34
2023-03-22T04:49:14.434Z,85.84
2023-03-22T04:51:42.796Z,86.13
2023-03-22T04:54:11.326Z,86.22
2023-03-22T04:56:39.705Z,86.39
2023-03-22T04:59:08.137Z,86.67
2023-03-22T05:01:37.467Z,86.69
2023-03-22T05:04:07.751Z,86.58
2023-03-22T05:06:36.061Z,86.82
2023-03-22T05:09:05.952Z,86.75
2023-03-22T05:11:34.333Z,86.66
2023-03-22T05:14:02.999Z,86.01
2023-03-22T05:16:31.442Z,85.73
2023-03-22T05:19:02.472Z,85.08
2023-03-22T05:21:36.555Z,84.80
2023-03-22T05:24:05.731Z,84.43
2023-03-22T05:26:37.881Z,83.95
2023-03-22T05:29:06.436Z,83.57
2023-03-22T05:31:34.799Z,83.03
2023-03-22T05:34:03.304Z,83.43
2023-03-22T05:36:36.448Z,83.25
2023-03-22T05:39:05.261Z,83.04
2023-03-22T05:41:36.223Z,82.93
2023-03-22T05:44:05.367Z,82.50
2023-03-22T05:46:42.366Z,82.25
2023-03-22T05:49:12.175Z,82.27
2023-03-22T05:51:42.576Z,81.98
2023-03-22T05:54:11.746Z,81.10
2023-03-22T05:56:40.638Z,80.64
2023-03-22T05:59:09.338Z,80.17
2023-03-22T06:01:39.312Z,79.71
2023-03-22T06:04:07.835Z,79.52
2023-03-22T06:06:36.374Z,79.34
2023-03-22T06:09:16.304Z,78.60
2023-03-22T06:11:45.685Z,77.82
2023-03-22T06:14:14.048Z,77.61
2023-03-22T06:16:42.609Z,77.37
2023-03-22T06:19:11.251Z,77.19
2023-03-22T06:21:39.658Z,77.05
2023-03-22T06:24:10.185Z,76.73
2023-03-22T06:26:38.597Z,76.47
2023-03-22T06:29:07.196Z,76.54
2023-03-22T06:31:35.643Z,76.19
2023-03-22T06:34:04.543Z,76.21
2023-03-22T06:36:33.016Z,75.29
2023-03-22T06:39:02.927Z,74.86
2023-03-22T06:41:32.744Z,74.58
2023-03-22T06:44:01.517Z,74.82
2023-03-22T06:46:30.041Z,74.69
2023-03-22T06:48:58.577Z,74.31
2023-03-22T06:51:27.043Z,74.56
2023-03-22T06:53:55.677Z,74.43
2023-03-22T06:56:24.203Z,74.59
2023-03-22T06:58:54.610Z,74.20
2023-03-22T07:01:23.276Z,74.13
2023-03-22T07:03:51.853Z,74.39
2023-03-22T07:06:20.366Z,73.62
2023-03-22T07:08:50.898Z,73.49
2023-03-22T07:11:20.748Z,73.69
2023-03-22T07:13:49.165Z,73.82
2023-03-22T07:16:20.103Z,73.36
2023-03-22T07:18:48.683Z,73.21
2023-03-22T07:21:17.263Z,73.48
2023-03-22T07:23:45.737Z,73.81
2023-03-22T07:26:14.328Z,73.77
2023-03-22T07:28:44.482Z,73.54
2023-03-22T07:31:14.442Z,72.54
2023-03-22T07:33:44.334Z,71.85
2023-03-22T07:36:13.096Z,70.43
2023-03-22T07:38:41.914Z,68.15
2023-03-22T07:41:10.694Z,67.94
2023-03-22T07:43:53.182Z,65.64
2023-03-22T07:46:24.081Z,64.13
2023-03-22T07:48:53.809Z,63.30
2023-03-22T07:51:22.584Z,61.87
2023-03-22T07:53:51.394Z,60.18
2023-03-22T07:56:19.925Z,59.94
2023-03-22T07:58:48.648Z,56.94
2023-03-22T08:01:17.053Z,59.57
2023-03-22T08:03:45.532Z,59.75
2023-03-22T08:06:16.490Z,61.50
2023-03-22T08:08:44.838Z,63.15
2023-03-22T08:11:13.418Z,64.75
2023-03-22T08:13:41.901Z,64.94
2023-03-22T08:16:10.467Z,65.87
2023-03-22T08:18:38.886Z,65.71
2023-03-22T08:21:07.988Z,66.08
2023-03-22T08:23:42.136Z,66.03
2023-03-22T08:26:11.648Z,65.63
2023-03-22T08:28:40.077Z,66.52
2023-03-22T08:31:14.698Z,65.95
2023-03-22T08:33:44.636Z,64.84
2023-03-22T08:36:16.363Z,64.24
2023-03-22T08:38:46.376Z,63.72
2023-03-22T08:41:15.987Z,63.39
2023-03-22T08:43:44.659Z,62.30
2023-03-22T08:46:13.136Z,63.37
2023-03-22T08:48:42.363Z,63.46
2023-03-22T08:51:11.089Z,62.85
2023-03-22T08:53:39.584Z,62.60
2023-03-22T08:56:10.440Z,62.62
2023-03-22T08:58:38.961Z,62.09
2023-03-22T09:01:07.632Z,59.90
2023-03-22T09:03:36.336Z,60.79
2023-03-22T09:06:05.321Z,59.57
2023-03-22T09:08:33.983Z,59.28
2023-03-22T09:11:02.350Z,58.24
2023-03-22T09:13:32.653Z,59.86
2023-03-22T09:16:01.476Z,61.67
2023-03-22T09:18:29.881Z,62.11
2023-03-22T09:20:58.237Z,62.63
2023-03-22T09:23:27.146Z,62.61
2023-03-22T09:25:55.738Z,61.18
2023-03-22T09:28:25.197Z,61.08
2023-03-22T09:30:55.695Z,59.13
2023-03-22T09:33:24.373Z,57.42
2023-03-22T09:35:54.589Z,59.16
2023-03-22T09:38:23.349Z,60.30
2023-03-22T09:41:00.432Z,59.64
2023-03-22T09:43:33.691Z,58.16
2023-03-22T09:46:06.325Z,58.61
2023-03-22T09:48:38.641Z,58.96
2023-03-22T09:51:21.575Z,58.90
2023-03-22T09:53:51.702Z,58.46
2023-03-22T09:56:24.881Z,57.41
2023-03-22T09:59:00.874Z,57.07
2023-03-22T10:01:39.298Z,56.79
2023-03-22T10:04:19.782Z,50.55
2023-03-22T10:06:52.237Z,51.50
2023-03-22T10:09:28.575Z,52.65
2023-03-22T10:12:04.953Z,55.08
2023-03-22T10:14:38.955Z,54.91
2023-03-22T10:17:13.273Z,56.02
2023-03-22T10:19:51.964Z,56.58
2023-03-22T10:22:25.644Z,56.91
2023-03-22T10:24:55.008Z,57.13
2023-03-22T10:27:24.777Z,57.11
2023-03-22T10:29:58.635Z,56.90
2023-03-22T10:32:38.957Z,57.08
2023-03-22T10:35:15.846Z,57.41
2023-03-22T10:37:47.795Z,58.14
2023-03-22T10:40:21.353Z,55.88
2023-03-22T10:42:55.561Z,51.91
2023-03-22T10:45:25.781Z,50.37
2023-03-22T10:48:01.757Z,49.86
2023-03-22T10:50:35.398Z,51.53
2023-03-22T10:53:06.839Z,52.71
2023-03-22T10:55:40.534Z,52.87
2023-03-22T10:58:14.930Z,55.44
2023-03-22T11:00:49.568Z,55.01
2023-03-22T11:03:30.666Z,54.31
2023-03-22T11:06:02.945Z,54.66
2023-03-22T11:08:40.049Z,55.33
2023-03-22T11:11:18.736Z,54.53
2023-03-22T11:13:57.059Z,55.92
2023-03-22T11:16:26.316Z,54.94
2023-03-22T11:18:59.136Z,55.73
2023-03-22T11:21:33.016Z,55.21
2023-03-22T11:24:05.681Z,55.57
2023-03-22T11:26:41.608Z,55.55
2023-03-22T11:29:17.983Z,54.63
2023-03-22T11:31:55.801Z,54.52
2023-03-22T11:34:29.520Z,54.64
2023-03-22T11:37:01.385Z,55.44
2023-03-22T11:39:30.982Z,56.57
2023-03-22T11:42:06.561Z,56.37
2023-03-22T11:44:37.911Z,56.08
2023-03-22T11:47:09.764Z,55.88
2023-03-22T11:49:45.480Z,56.79
2023-03-22T11:52:18.701Z,56.59
2023-03-22T11:54:48.871Z,57.25
2023-03-22T11:57:21.594Z,57.56
2023-03-22T11:59:58.235Z,58.04
2023-03-22T12:02:30.382Z,57.97
2023-03-22T12:05:07.148Z,58.12
2023-03-22T12:07:37.574Z,58.21
2023-03-22T12:10:12.931Z,59.11
2023-03-22T12:12:47.378Z,60.31
2023-03-22T12:15:21.234Z,62.04
2023-03-22T12:17:56.030Z,62.59
2023-03-22T12:20:37.266Z,61.74
2023-03-22T12:23:14.556Z,61.32
2023-03-22T12:25:47.349Z,61.01
2023-03-22T12:28:19.280Z,59.85
2023-03-22T12:30:51.115Z,59.48
2023-03-22T12:33:24.825Z,58.94
2023-03-22T12:35:59.159Z,58.33
2023-03-22T12:38:34.068Z,57.25
2023-03-22T12:41:08.934Z,56.80
2023-03-22T12:43:47.825Z,55.79
2023-03-22T12:46:22.360Z,55.80
2023-03-22T12:48:54.753Z,56.16
2023-03-22T12:51:24.720Z,56.72
2023-03-22T12:53:57.055Z,57.50
2023-03-22T12:56:39.638Z,58.18
2023-03-22T12:59:16.867Z,58.85
2023-03-22T13:01:51.327Z,59.43
2023-03-22T13:04:50.468Z,59.23
2023-03-22T13:07:38.991Z,60.82
2023-03-22T13:10:41.820Z,62.33
2023-03-22T13:13:13.593Z,61.31
2023-03-22T13:15:59.043Z,60.15
2023-03-22T13:18:42.293Z,59.57
2023-03-22T13:21:16.741Z,59.24
2023-03-22T13:23:57.977Z,58.63
2023-03-22T13:26:34.590Z,59.01
2023-03-22T13:29:11.699Z,58.44
2023-03-22T13:31:44.975Z,57.92
2023-03-22T13:34:16.895Z,58.12
2023-03-22T13:36:54.934Z,58.53
2023-03-22T13:39:27.328Z,58.46
2023-03-22T13:42:09.548Z,57.89
2023-03-22T13:44:40.605Z,58.26
2023-03-22T13:47:35.144Z,57.58
2023-03-22T13:50:12.480Z,58.03
2023-03-22T13:52:43.635Z,57.78
2023-03-22T13:55:33.728Z,57.35
2023-03-22T13:58:05.823Z,57.28
2023-03-22T14:00:48.042Z,57.10
2023-03-22T14:03:25.510Z,57.14
2023-03-22T14:06:04.936Z,56.92
2023-03-22T14:08:35.598Z,57.59
2023-03-22T14:11:17.348Z,57.64
2023-03-22T14:13:51.452Z,57.87
2023-03-22T14:16:30.469Z,57.40
2023-03-22T14:19:01.753Z,58.44
2023-03-22T14:21:34.141Z,58.90
